sensor_id;sensor_type;location;lat;lon;timestamp;pressure;altitude;pressure_sealevel;temperature;humidity
8758;BME280;4415;42.152;24.744;2022-07-06T00:01:05;99394.47;;;24.32;nan
8758;BME280;4415;42.152;24.744;2022-07-06T00:03:31;99405.47;;;24.29;nan
8758;BME280;4415;42.152;24.744;2022-07-06T00:05:56;99405.47;;;24.29;nan
8758;BME280;4415;42.152;24.744;2022-07-06T00:08:22;99402.34;;;24.34;nan
8758;BME280;4415;42.152;24.744;2022-07-06T00:10:47;99379.34;;;24.16;nan
8758;BME280;4415;42.152;24.744;2022-07-06T00:13:13;99387.88;;;24.03;nan
8758;BME280;4415;42.152;24.744;2022-07-06T00:15:38;99406.03;;;24.04;nan
8758;BME280;4415;42.152;24.744;2022-07-06T00:18:03;99400.63;;;24.15;nan
8758;BME280;4415;42.152;24.744;2022-07-06T00:20:29;99405.34;;;24.15;nan
8758;BME280;4415;42.152;24.744;2022-07-06T00:22:54;99389.34;;;23.90;nan
8758;BME280;4415;42.152;24.744;2022-07-06T00:25:20;99386.78;;;23.68;nan
8758;BME280;4415;42.152;24.744;2022-07-06T00:27:45;99384.41;;;23.66;nan
8758;BME280;4415;42.152;24.744;2022-07-06T00:30:10;99387.50;;;23.61;nan
8758;BME280;4415;42.152;24.744;2022-07-06T00:32:36;99383.53;;;23.59;nan
8758;BME280;4415;42.152;24.744;2022-07-06T00:35:01;99385.91;;;23.57;nan
8758;BME280;4415;42.152;24.744;2022-07-06T00:37:27;99389.69;;;23.45;nan
8758;BME280;4415;42.152;24.744;2022-07-06T00:39:52;99377.09;;;23.44;nan
8758;BME280;4415;42.152;24.744;2022-07-06T00:42:17;99358.03;;;23.32;nan
8758;BME280;4415;42.152;24.744;2022-07-06T00:44:43;99359.66;;;23.36;nan
8758;BME280;4415;42.152;24.744;2022-07-06T00:47:08;99374.00;;;23.49;nan
8758;BME280;4415;42.152;24.744;2022-07-06T00:49:34;99378.75;;;23.52;nan
8758;BME280;4415;42.152;24.744;2022-07-06T00:52:18;99347.22;;;23.49;nan
8758;BME280;4415;42.152;24.744;2022-07-06T00:54:44;99346.34;;;23.42;nan
8758;BME280;4415;42.152;24.744;2022-07-06T00:57:10;99351.03;;;23.38;nan
8758;BME280;4415;42.152;24.744;2022-07-06T00:59:36;99339.13;;;23.30;nan
8758;BME280;4415;42.152;24.744;2022-07-06T01:02:01;99341.13;;;23.33;nan
8758;BME280;4415;42.152;24.744;2022-07-06T01:04:26;99320.19;;;23.29;nan
8758;BME280;4415;42.152;24.744;2022-07-06T01:06:53;99321.06;;;23.36;nan
8758;BME280;4415;42.152;24.744;2022-07-06T01:09:18;99324.47;;;23.60;nan
8758;BME280;4415;42.152;24.744;2022-07-06T01:11:44;99290.53;;;23.56;nan
8758;BME280;4415;42.152;24.744;2022-07-06T01:14:11;99300.03;;;23.62;nan
8758;BME280;4415;42.152;24.744;2022-07-06T01:16:37;99299.38;;;23.75;nan
8758;BME280;4415;42.152;24.744;2022-07-06T01:19:03;99305.69;;;23.79;nan
8758;BME280;4415;42.152;24.744;2022-07-06T01:21:28;99281.19;;;23.67;nan
8758;BME280;4415;42.152;24.744;2022-07-06T01:23:53;99283.53;;;23.65;nan
8758;BME280;4415;42.152;24.744;2022-07-06T01:26:20;99274.06;;;23.66;nan
8758;BME280;4415;42.152;24.744;2022-07-06T01:28:47;99285.19;;;23.73;nan
8758;BME280;4415;42.152;24.744;2022-07-06T01:31:25;99282.81;;;23.75;nan
8758;BME280;4415;42.152;24.744;2022-07-06T01:33:53;99268.59;;;23.70;nan
8758;BME280;4415;42.152;24.744;2022-07-06T01:36:19;99251.25;;;23.69;nan
8758;BME280;4415;42.152;24.744;2022-07-06T01:38:49;99278.91;;;23.76;nan
8758;BME280;4415;42.152;24.744;2022-07-06T01:41:15;99272.41;;;23.55;nan
8758;BME280;4415;42.152;24.744;2022-07-06T01:43:40;99270.78;;;23.50;nan
8758;BME280;4415;42.152;24.744;2022-07-06T01:46:06;99263.75;;;23.56;nan
8758;BME280;4415;42.152;24.744;2022-07-06T01:50:56;99265.31;;;23.53;nan
8758;BME280;4415;42.152;24.744;2022-07-06T01:53:22;99259.00;;;23.53;nan
8758;BME280;4415;42.152;24.744;2022-07-06T01:55:47;99236.22;;;23.60;nan
8758;BME280;4415;42.152;24.744;2022-07-06T01:58:13;99248.94;;;23.78;nan
8758;BME280;4415;42.152;24.744;2022-07-06T02:00:38;99234.78;;;23.83;nan
8758;BME280;4415;42.152;24.744;2022-07-06T02:03:03;99235.66;;;23.94;nan
8758;BME280;4415;42.152;24.744;2022-07-06T02:05:29;99218.28;;;23.87;nan
8758;BME280;4415;42.152;24.744;2022-07-06T02:07:54;99232.13;;;24.01;nan
8758;BME280;4415;42.152;24.744;2022-07-06T02:10:19;99218.25;;;23.83;nan
8758;BME280;4415;42.152;24.744;2022-07-06T02:12:45;99234.84;;;23.94;nan
8758;BME280;4415;42.152;24.744;2022-07-06T02:15:11;99221.41;;;23.82;nan
8758;BME280;4415;42.152;24.744;2022-07-06T02:17:36;99219.06;;;23.91;nan
8758;BME280;4415;42.152;24.744;2022-07-06T02:20:03;99211.13;;;23.82;nan
8758;BME280;4415;42.152;24.744;2022-07-06T02:22:29;99223.75;;;23.83;nan
8758;BME280;4415;42.152;24.744;2022-07-06T02:24:54;99227.25;;;23.73;nan
8758;BME280;4415;42.152;24.744;2022-07-06T02:27:20;99222.09;;;23.68;nan
8758;BME280;4415;42.152;24.744;2022-07-06T02:29:45;99204.56;;;23.43;nan
8758;BME280;4415;42.152;24.744;2022-07-06T02:32:10;99224.06;;;23.24;nan
8758;BME280;4415;42.152;24.744;2022-07-06T02:34:36;99237.53;;;23.32;nan
8758;BME280;4415;42.152;24.744;2022-07-06T02:37:01;99213.75;;;23.14;nan
8758;BME280;4415;42.152;24.744;2022-07-06T02:39:27;99242.91;;;23.15;nan
8758;BME280;4415;42.152;24.744;2022-07-06T02:41:52;99243.75;;;23.22;nan
8758;BME280;4415;42.152;24.744;2022-07-06T02:44:17;99252.50;;;23.35;nan
8758;BME280;4415;42.152;24.744;2022-07-06T02:46:43;99252.59;;;23.38;nan
8758;BME280;4415;42.152;24.744;2022-07-06T02:49:08;99249.91;;;23.49;nan
8758;BME280;4415;42.152;24.744;2022-07-06T02:51:34;99239.25;;;23.47;nan
8758;BME280;4415;42.152;24.744;2022-07-06T02:53:59;99257.00;;;23.50;nan
8758;BME280;4415;42.152;24.744;2022-07-06T02:56:24;99255.88;;;23.58;nan
8758;BME280;4415;42.152;24.744;2022-07-06T02:58:51;99244.09;;;23.61;nan
8758;BME280;4415;42.152;24.744;2022-07-06T03:01:16;99257.50;;;23.63;nan
8758;BME280;4415;42.152;24.744;2022-07-06T03:03:42;99250.41;;;23.62;nan
8758;BME280;4415;42.152;24.744;2022-07-06T03:06:07;99264.59;;;23.60;nan
8758;BME280;4415;42.152;24.744;2022-07-06T03:08:33;99270.09;;;23.64;nan
8758;BME280;4415;42.152;24.744;2022-07-06T03:10:59;99264.63;;;23.67;nan
8758;BME280;4415;42.152;24.744;2022-07-06T03:13:25;99259.94;;;23.71;nan
8758;BME280;4415;42.152;24.744;2022-07-06T03:15:50;99264.75;;;23.81;nan
8758;BME280;4415;42.152;24.744;2022-07-06T03:18:15;99256.91;;;23.90;nan
8758;BME280;4415;42.152;24.744;2022-07-06T03:20:41;99272.84;;;24.11;nan
8758;BME280;4415;42.152;24.744;2022-07-06T03:23:06;99281.53;;;24.17;nan
8758;BME280;4415;42.152;24.744;2022-07-06T03:25:32;99278.47;;;24.36;nan
8758;BME280;4415;42.152;24.744;2022-07-06T03:27:57;99258.00;;;24.40;nan
8758;BME280;4415;42.152;24.744;2022-07-06T03:30:23;99261.16;;;24.42;nan
8758;BME280;4415;42.152;24.744;2022-07-06T03:32:48;99284.19;;;24.75;nan
8758;BME280;4415;42.152;24.744;2022-07-06T03:35:14;99272.31;;;24.63;nan
8758;BME280;4415;42.152;24.744;2022-07-06T03:37:39;99285.84;;;24.90;nan
8758;BME280;4415;42.152;24.744;2022-07-06T03:40:05;99288.22;;;24.95;nan
8758;BME280;4415;42.152;24.744;2022-07-06T03:42:31;99283.53;;;25.23;nan
8758;BME280;4415;42.152;24.744;2022-07-06T03:44:56;99290.72;;;25.81;nan
8758;BME280;4415;42.152;24.744;2022-07-06T03:47:21;99281.06;;;26.53;nan
8758;BME280;4415;42.152;24.744;2022-07-06T03:49:47;99283.03;;;27.35;nan
8758;BME280;4415;42.152;24.744;2022-07-06T03:52:12;99286.03;;;27.58;nan
8758;BME280;4415;42.152;24.744;2022-07-06T03:54:38;99291.94;;;28.08;nan
8758;BME280;4415;42.152;24.744;2022-07-06T03:57:03;99290.72;;;28.50;nan
8758;BME280;4415;42.152;24.744;2022-07-06T03:59:28;99300.28;;;29.10;nan
8758;BME280;4415;42.152;24.744;2022-07-06T04:01:54;99277.84;;;29.24;nan
8758;BME280;4415;42.152;24.744;2022-07-06T04:04:20;99289.66;;;29.81;nan
8758;BME280;4415;42.152;24.744;2022-07-06T04:06:45;99297.13;;;30.08;nan
8758;BME280;4415;42.152;24.744;2022-07-06T04:09:10;99293.81;;;29.70;nan
8758;BME280;4415;42.152;24.744;2022-07-06T04:11:36;99286.94;;;28.98;nan
8758;BME280;4415;42.152;24.744;2022-07-06T04:14:01;99287.63;;;28.41;nan
8758;BME280;4415;42.152;24.744;2022-07-06T04:16:27;99291.19;;;28.01;nan
8758;BME280;4415;42.152;24.744;2022-07-06T04:18:52;99289.47;;;28.21;nan
8758;BME280;4415;42.152;24.744;2022-07-06T04:21:17;99296.59;;;28.18;nan
8758;BME280;4415;42.152;24.744;2022-07-06T04:23:43;99297.47;;;28.12;nan
8758;BME280;4415;42.152;24.744;2022-07-06T04:26:08;99289.06;;;27.75;nan
8758;BME280;4415;42.152;24.744;2022-07-06T04:28:34;99309.47;;;27.98;nan
8758;BME280;4415;42.152;24.744;2022-07-06T04:30:59;99292.44;;;29.01;nan
8758;BME280;4415;42.152;24.744;2022-07-06T04:33:25;99286.88;;;29.55;nan
8758;BME280;4415;42.152;24.744;2022-07-06T04:35:50;99286.38;;;29.36;nan
8758;BME280;4415;42.152;24.744;2022-07-06T04:38:15;99296.44;;;28.70;nan
8758;BME280;4415;42.152;24.744;2022-07-06T04:40:41;99296.09;;;28.64;nan
8758;BME280;4415;42.152;24.744;2022-07-06T04:43:06;99307.25;;;28.61;nan
8758;BME280;4415;42.152;24.744;2022-07-06T04:45:32;99294.97;;;28.92;nan
8758;BME280;4415;42.152;24.744;2022-07-06T04:47:57;99278.97;;;29.76;nan
8758;BME280;4415;42.152;24.744;2022-07-06T04:50:23;99259.94;;;30.77;nan
8758;BME280;4415;42.152;24.744;2022-07-06T04:52:48;99297.81;;;31.65;nan
8758;BME280;4415;42.152;24.744;2022-07-06T04:55:14;99306.75;;;31.41;nan
8758;BME280;4415;42.152;24.744;2022-07-06T04:57:40;99293.72;;;30.63;nan
8758;BME280;4415;42.152;24.744;2022-07-06T05:00:06;99292.41;;;29.58;nan
8758;BME280;4415;42.152;24.744;2022-07-06T05:02:33;99293.75;;;29.20;nan
8758;BME280;4415;42.152;24.744;2022-07-06T05:04:58;99293.53;;;28.80;nan
8758;BME280;4415;42.152;24.744;2022-07-06T05:07:23;99297.66;;;28.69;nan
8758;BME280;4415;42.152;24.744;2022-07-06T05:09:53;99307.31;;;29.21;nan
8758;BME280;4415;42.152;24.744;2022-07-06T05:12:18;99289.28;;;30.02;nan
8758;BME280;4415;42.152;24.744;2022-07-06T05:14:44;99283.19;;;29.88;nan
8758;BME280;4415;42.152;24.744;2022-07-06T05:17:09;99305.69;;;29.74;nan
8758;BME280;4415;42.152;24.744;2022-07-06T05:19:35;99311.88;;;29.85;nan
8758;BME280;4415;42.152;24.744;2022-07-06T05:22:00;99314.34;;;29.29;nan
8758;BME280;4415;42.152;24.744;2022-07-06T05:24:26;99311.41;;;29.10;nan
8758;BME280;4415;42.152;24.744;2022-07-06T05:26:51;99307.28;;;28.57;nan
8758;BME280;4415;42.152;24.744;2022-07-06T05:29:16;99334.88;;;28.78;nan
8758;BME280;4415;42.152;24.744;2022-07-06T05:31:42;99324.69;;;28.61;nan
8758;BME280;4415;42.152;24.744;2022-07-06T05:34:07;99334.69;;;28.93;nan
8758;BME280;4415;42.152;24.744;2022-07-06T05:36:33;99334.09;;;28.74;nan
8758;BME280;4415;42.152;24.744;2022-07-06T05:38:58;99336.44;;;28.79;nan
8758;BME280;4415;42.152;24.744;2022-07-06T05:41:24;99311.31;;;29.17;nan
8758;BME280;4415;42.152;24.744;2022-07-06T05:43:49;99327.91;;;29.77;nan
8758;BME280;4415;42.152;24.744;2022-07-06T05:46:14;99330.59;;;29.58;nan
8758;BME280;4415;42.152;24.744;2022-07-06T05:48:40;99321.06;;;29.02;nan
8758;BME280;4415;42.152;24.744;2022-07-06T05:51:24;99322.03;;;28.88;nan
8758;BME280;4415;42.152;24.744;2022-07-06T05:53:49;99350.78;;;28.74;nan
8758;BME280;4415;42.152;24.744;2022-07-06T05:56:15;99341.50;;;29.18;nan
8758;BME280;4415;42.152;24.744;2022-07-06T05:58:40;99328.28;;;30.02;nan
8758;BME280;4415;42.152;24.744;2022-07-06T06:01:06;99336.13;;;31.81;nan
8758;BME280;4415;42.152;24.744;2022-07-06T06:03:33;99327.19;;;32.34;nan
8758;BME280;4415;42.152;24.744;2022-07-06T06:05:59;99345.41;;;33.76;nan
8758;BME280;4415;42.152;24.744;2022-07-06T06:08:25;99339.63;;;35.16;nan
8758;BME280;4415;42.152;24.744;2022-07-06T06:10:51;99345.78;;;36.22;nan
8758;BME280;4415;42.152;24.744;2022-07-06T06:13:18;99346.69;;;37.10;nan
8758;BME280;4415;42.152;24.744;2022-07-06T06:15:43;99340.91;;;37.88;nan
8758;BME280;4415;42.152;24.744;2022-07-06T06:18:12;99348.66;;;38.02;nan
8758;BME280;4415;42.152;24.744;2022-07-06T06:20:38;99349.28;;;37.73;nan
8758;BME280;4415;42.152;24.744;2022-07-06T06:23:03;99358.91;;;36.88;nan
8758;BME280;4415;42.152;24.744;2022-07-06T06:27:54;99342.59;;;38.42;nan
8758;BME280;4415;42.152;24.744;2022-07-06T06:30:20;99339.25;;;37.30;nan
8758;BME280;4415;42.152;24.744;2022-07-06T06:32:45;99363.97;;;38.34;nan
8758;BME280;4415;42.152;24.744;2022-07-06T06:35:11;99353.28;;;36.16;nan
8758;BME280;4415;42.152;24.744;2022-07-06T06:37:36;99352.75;;;35.50;nan
8758;BME280;4415;42.152;24.744;2022-07-06T06:40:03;99361.00;;;35.45;nan
8758;BME280;4415;42.152;24.744;2022-07-06T06:42:29;99360.00;;;34.64;nan
8758;BME280;4415;42.152;24.744;2022-07-06T06:44:55;99356.88;;;34.62;nan
8758;BME280;4415;42.152;24.744;2022-07-06T06:47:21;99375.22;;;33.70;nan
8758;BME280;4415;42.152;24.744;2022-07-06T06:49:46;99363.94;;;34.20;nan
8758;BME280;4415;42.152;24.744;2022-07-06T06:52:12;99365.22;;;33.81;nan
8758;BME280;4415;42.152;24.744;2022-07-06T06:54:38;99366.22;;;33.49;nan
8758;BME280;4415;42.152;24.744;2022-07-06T06:57:03;99357.66;;;35.06;nan
8758;BME280;4415;42.152;24.744;2022-07-06T06:59:29;99366.72;;;36.39;nan
8758;BME280;4415;42.152;24.744;2022-07-06T07:01:54;99358.91;;;36.88;nan
8758;BME280;4415;42.152;24.744;2022-07-06T07:04:20;99364.97;;;37.65;nan
8758;BME280;4415;42.152;24.744;2022-07-06T07:06:45;99338.41;;;36.88;nan
8758;BME280;4415;42.152;24.744;2022-07-06T07:09:10;99351.44;;;36.58;nan
8758;BME280;4415;42.152;24.744;2022-07-06T07:11:36;99348.78;;;34.64;nan
8758;BME280;4415;42.152;24.744;2022-07-06T07:14:01;99423.97;;;34.69;nan
8758;BME280;4415;42.152;24.744;2022-07-06T07:16:28;99355.31;;;36.24;nan
8758;BME280;4415;42.152;24.744;2022-07-06T07:18:53;99358.59;;;36.23;nan
8758;BME280;4415;42.152;24.744;2022-07-06T07:21:19;99348.00;;;35.07;nan
8758;BME280;4415;42.152;24.744;2022-07-06T07:23:44;99341.22;;;33.80;nan
8758;BME280;4415;42.152;24.744;2022-07-06T07:26:10;99359.44;;;35.83;nan
8758;BME280;4415;42.152;24.744;2022-07-06T07:28:35;99358.59;;;36.23;nan
8758;BME280;4415;42.152;24.744;2022-07-06T07:31:00;99337.47;;;37.00;nan
8758;BME280;4415;42.152;24.744;2022-07-06T07:33:26;99329.78;;;37.10;nan
8758;BME280;4415;42.152;24.744;2022-07-06T07:35:51;99360.84;;;35.88;nan
8758;BME280;4415;42.152;24.744;2022-07-06T07:38:17;99353.81;;;34.35;nan
8758;BME280;4415;42.152;24.744;2022-07-06T07:40:42;99346.78;;;33.59;nan
8758;BME280;4415;42.152;24.744;2022-07-06T07:43:08;99343.88;;;34.78;nan
8758;BME280;4415;42.152;24.744;2022-07-06T07:45:33;99349.28;;;33.91;nan
8758;BME280;4415;42.152;24.744;2022-07-06T07:47:59;99353.22;;;33.30;nan
8758;BME280;4415;42.152;24.744;2022-07-06T07:50:24;99347.91;;;32.66;nan
8758;BME280;4415;42.152;24.744;2022-07-06T07:52:49;99361.53;;;32.35;nan
8758;BME280;4415;42.152;24.744;2022-07-06T07:55:15;99364.91;;;32.43;nan
8758;BME280;4415;42.152;24.744;2022-07-06T07:57:40;99345.50;;;31.39;nan
8758;BME280;4415;42.152;24.744;2022-07-06T08:00:06;99353.75;;;32.26;nan
8758;BME280;4415;42.152;24.744;2022-07-06T08:02:32;99347.28;;;32.87;nan
8758;BME280;4415;42.152;24.744;2022-07-06T08:04:57;99339.78;;;33.25;nan
8758;BME280;4415;42.152;24.744;2022-07-06T08:07:22;99329.25;;;33.29;nan
8758;BME280;4415;42.152;24.744;2022-07-06T08:09:48;99339.13;;;33.72;nan
8758;BME280;4415;42.152;24.744;2022-07-06T08:12:13;99346.50;;;33.40;nan
8758;BME280;4415;42.152;24.744;2022-07-06T08:14:39;99341.81;;;33.88;nan
8758;BME280;4415;42.152;24.744;2022-07-06T08:17:04;99343.66;;;34.50;nan
8758;BME280;4415;42.152;24.744;2022-07-06T08:19:30;99328.88;;;34.03;nan
8758;BME280;4415;42.152;24.744;2022-07-06T08:21:56;99338.81;;;33.03;nan
8758;BME280;4415;42.152;24.744;2022-07-06T08:24:22;99353.72;;;32.59;nan
8758;BME280;4415;42.152;24.744;2022-07-06T08:26:47;99333.19;;;32.78;nan
8758;BME280;4415;42.152;24.744;2022-07-06T08:29:13;99331.03;;;33.11;nan
8758;BME280;4415;42.152;24.744;2022-07-06T08:31:38;99332.06;;;33.42;nan
8758;BME280;4415;42.152;24.744;2022-07-06T08:34:04;99341.59;;;33.70;nan
8758;BME280;4415;42.152;24.744;2022-07-06T08:36:30;99327.88;;;34.65;nan
8758;BME280;4415;42.152;24.744;2022-07-06T08:38:55;99332.19;;;34.57;nan
8758;BME280;4415;42.152;24.744;2022-07-06T08:41:23;99328.88;;;35.24;nan
8758;BME280;4415;42.152;24.744;2022-07-06T08:43:50;99340.97;;;35.82;nan
8758;BME280;4415;42.152;24.744;2022-07-06T08:46:16;99320.16;;;36.38;nan
8758;BME280;4415;42.152;24.744;2022-07-06T08:48:41;99328.56;;;36.02;nan
8758;BME280;4415;42.152;24.744;2022-07-06T08:51:07;99325.59;;;36.41;nan
8758;BME280;4415;42.152;24.744;2022-07-06T08:53:33;99333.28;;;36.68;nan
8758;BME280;4415;42.152;24.744;2022-07-06T08:56:00;99321.19;;;35.46;nan
8758;BME280;4415;42.152;24.744;2022-07-06T08:58:26;99326.25;;;35.29;nan
8758;BME280;4415;42.152;24.744;2022-07-06T09:00:56;99333.09;;;34.54;nan
8758;BME280;4415;42.152;24.744;2022-07-06T09:03:25;99322.94;;;34.01;nan
8758;BME280;4415;42.152;24.744;2022-07-06T09:05:51;99325.22;;;33.55;nan
8758;BME280;4415;42.152;24.744;2022-07-06T09:08:18;99340.13;;;33.27;nan
8758;BME280;4415;42.152;24.744;2022-07-06T09:10:44;99336.25;;;32.55;nan
8758;BME280;4415;42.152;24.744;2022-07-06T09:13:10;99343.44;;;32.23;nan
8758;BME280;4415;42.152;24.744;2022-07-06T09:15:36;99327.94;;;31.90;nan
8758;BME280;4415;42.152;24.744;2022-07-06T09:18:06;99354.31;;;32.05;nan
8758;BME280;4415;42.152;24.744;2022-07-06T09:20:32;99344.94;;;31.63;nan
8758;BME280;4415;42.152;24.744;2022-07-06T09:22:59;99336.69;;;31.40;nan
8758;BME280;4415;42.152;24.744;2022-07-06T09:25:26;99301.56;;;31.07;nan
8758;BME280;4415;42.152;24.744;2022-07-06T09:27:52;99339.03;;;31.42;nan
8758;BME280;4415;42.152;24.744;2022-07-06T09:30:23;99347.47;;;31.58;nan
8758;BME280;4415;42.152;24.744;2022-07-06T09:32:51;99334.50;;;31.32;nan
8758;BME280;4415;42.152;24.744;2022-07-06T09:37:46;99350.69;;;31.20;nan
8758;BME280;4415;42.152;24.744;2022-07-06T09:40:17;99340.63;;;31.07;nan
8758;BME280;4415;42.152;24.744;2022-07-06T09:42:43;99339.84;;;31.06;nan
8758;BME280;4415;42.152;24.744;2022-07-06T09:45:09;99345.81;;;31.25;nan
8758;BME280;4415;42.152;24.744;2022-07-06T09:47:34;99326.19;;;31.48;nan
8758;BME280;4415;42.152;24.744;2022-07-06T09:50:01;99320.34;;;31.58;nan
8758;BME280;4415;42.152;24.744;2022-07-06T09:52:26;99323.13;;;31.74;nan
8758;BME280;4415;42.152;24.744;2022-07-06T09:54:52;99327.47;;;32.24;nan
8758;BME280;4415;42.152;24.744;2022-07-06T09:57:17;99312.19;;;32.57;nan
8758;BME280;4415;42.152;24.744;2022-07-06T09:59:50;99323.19;;;32.64;nan
8758;BME280;4415;42.152;24.744;2022-07-06T10:02:16;99309.31;;;32.45;nan
8758;BME280;4415;42.152;24.744;2022-07-06T10:04:43;99313.97;;;31.90;nan
8758;BME280;4415;42.152;24.744;2022-07-06T10:07:09;99322.66;;;32.24;nan
8758;BME280;4415;42.152;24.744;2022-07-06T10:09:37;99305.50;;;32.67;nan
8758;BME280;4415;42.152;24.744;2022-07-06T10:12:03;99306.09;;;32.75;nan
8758;BME280;4415;42.152;24.744;2022-07-06T10:14:32;99297.91;;;33.34;nan
8758;BME280;4415;42.152;24.744;2022-07-06T10:17:00;99308.53;;;33.52;nan
8758;BME280;4415;42.152;24.744;2022-07-06T10:19:27;99294.53;;;33.65;nan
8758;BME280;4415;42.152;24.744;2022-07-06T10:21:53;99293.84;;;33.35;nan
8758;BME280;4415;42.152;24.744;2022-07-06T10:24:20;99280.75;;;33.58;nan
8758;BME280;4415;42.152;24.744;2022-07-06T10:26:46;99292.78;;;33.92;nan
8758;BME280;4415;42.152;24.744;2022-07-06T10:29:13;99294.19;;;34.65;nan
8758;BME280;4415;42.152;24.744;2022-07-06T10:31:43;99274.69;;;34.06;nan
8758;BME280;4415;42.152;24.744;2022-07-06T10:34:10;99288.44;;;34.91;nan
8758;BME280;4415;42.152;24.744;2022-07-06T10:36:41;99280.84;;;35.00;nan
8758;BME280;4415;42.152;24.744;2022-07-06T10:39:08;99261.88;;;35.53;nan
8758;BME280;4415;42.152;24.744;2022-07-06T10:41:52;99279.00;;;36.77;nan
8758;BME280;4415;42.152;24.744;2022-07-06T10:44:20;99271.69;;;36.61;nan
8758;BME280;4415;42.152;24.744;2022-07-06T10:47:04;99271.91;;;36.90;nan
8758;BME280;4415;42.152;24.744;2022-07-06T10:49:30;99273.78;;;37.02;nan
8758;BME280;4415;42.152;24.744;2022-07-06T10:51:56;99261.56;;;37.05;nan
8758;BME280;4415;42.152;24.744;2022-07-06T10:54:22;99260.28;;;36.28;nan
8758;BME280;4415;42.152;24.744;2022-07-06T10:56:51;99263.09;;;36.37;nan
8758;BME280;4415;42.152;24.744;2022-07-06T10:59:22;99264.78;;;36.71;nan
8758;BME280;4415;42.152;24.744;2022-07-06T11:02:16;99269.16;;;36.63;nan
8758;BME280;4415;42.152;24.744;2022-07-06T11:04:43;99267.63;;;36.62;nan
8758;BME280;4415;42.152;24.744;2022-07-06T11:07:11;99290.28;;;35.46;nan
8758;BME280;4415;42.152;24.744;2022-07-06T11:09:38;99269.97;;;36.09;nan
8758;BME280;4415;42.152;24.744;2022-07-06T11:12:19;99249.97;;;36.43;nan
8758;BME280;4415;42.152;24.744;2022-07-06T11:14:46;99246.28;;;36.88;nan
8758;BME280;4415;42.152;24.744;2022-07-06T11:17:13;99256.84;;;36.15;nan
8758;BME280;4415;42.152;24.744;2022-07-06T11:19:48;99238.19;;;36.72;nan
8758;BME280;4415;42.152;24.744;2022-07-06T11:22:15;99242.53;;;36.82;nan
8758;BME280;4415;42.152;24.744;2022-07-06T11:24:41;99238.69;;;36.25;nan
8758;BME280;4415;42.152;24.744;2022-07-06T11:27:07;99232.63;;;36.18;nan
8758;BME280;4415;42.152;24.744;2022-07-06T11:29:35;99235.75;;;36.20;nan
8758;BME280;4415;42.152;24.744;2022-07-06T11:32:05;99233.06;;;35.89;nan
8758;BME280;4415;42.152;24.744;2022-07-06T11:34:35;99238.22;;;36.00;nan
8758;BME280;4415;42.152;24.744;2022-07-06T11:37:02;99237.91;;;36.34;nan
8758;BME280;4415;42.152;24.744;2022-07-06T11:39:32;99235.75;;;36.38;nan
8758;BME280;4415;42.152;24.744;2022-07-06T11:41:59;99237.31;;;36.21;nan
8758;BME280;4415;42.152;24.744;2022-07-06T11:44:26;99229.78;;;35.72;nan
8758;BME280;4415;42.152;24.744;2022-07-06T11:46:52;99225.28;;;36.02;nan
8758;BME280;4415;42.152;24.744;2022-07-06T11:49:17;99231.34;;;35.92;nan
8758;BME280;4415;42.152;24.744;2022-07-06T11:51:45;99223.34;;;35.72;nan
8758;BME280;4415;42.152;24.744;2022-07-06T11:56:45;99226.50;;;35.74;nan
8758;BME280;4415;42.152;24.744;2022-07-06T11:59:11;99211.66;;;35.82;nan
8758;BME280;4415;42.152;24.744;2022-07-06T12:01:36;99207.22;;;35.36;nan
8758;BME280;4415;42.152;24.744;2022-07-06T12:04:07;99207.28;;;34.53;nan
8758;BME280;4415;42.152;24.744;2022-07-06T12:06:33;99219.13;;;33.92;nan
8758;BME280;4415;42.152;24.744;2022-07-06T12:09:00;99189.38;;;32.75;nan
8758;BME280;4415;42.152;24.744;2022-07-06T12:11:32;99194.41;;;33.18;nan
8758;BME280;4415;42.152;24.744;2022-07-06T12:13:59;99200.53;;;33.01;nan
8758;BME280;4415;42.152;24.744;2022-07-06T12:16:35;99213.97;;;33.90;nan
8758;BME280;4415;42.152;24.744;2022-07-06T12:19:03;99197.75;;;33.85;nan
8758;BME280;4415;42.152;24.744;2022-07-06T12:21:29;99201.94;;;34.46;nan
8758;BME280;4415;42.152;24.744;2022-07-06T12:23:55;99205.81;;;35.01;nan
8758;BME280;4415;42.152;24.744;2022-07-06T12:26:23;99195.25;;;34.74;nan
8758;BME280;4415;42.152;24.744;2022-07-06T12:29:05;99194.03;;;34.53;nan
8758;BME280;4415;42.152;24.744;2022-07-06T12:31:33;99196.13;;;34.93;nan
8758;BME280;4415;42.152;24.744;2022-07-06T12:33:59;99187.38;;;34.91;nan
8758;BME280;4415;42.152;24.744;2022-07-06T12:36:25;99200.66;;;34.59;nan
8758;BME280;4415;42.152;24.744;2022-07-06T12:38:50;99199.19;;;33.90;nan
8758;BME280;4415;42.152;24.744;2022-07-06T12:41:33;99184.44;;;33.77;nan
8758;BME280;4415;42.152;24.744;2022-07-06T12:44:09;99183.69;;;33.98;nan
8758;BME280;4415;42.152;24.744;2022-07-06T12:46:37;99172.72;;;34.34;nan
8758;BME280;4415;42.152;24.744;2022-07-06T12:49:25;99170.75;;;34.00;nan
8758;BME280;4415;42.152;24.744;2022-07-06T12:57:13;99184.09;;;34.09;nan
8758;BME280;4415;42.152;24.744;2022-07-06T12:59:47;99166.53;;;33.62;nan
8758;BME280;4415;42.152;24.744;2022-07-06T13:02:21;99164.38;;;34.43;nan
8758;BME280;4415;42.152;24.744;2022-07-06T13:05:00;99168.41;;;34.64;nan
8758;BME280;4415;42.152;24.744;2022-07-06T13:07:27;99150.56;;;34.89;nan
8758;BME280;4415;42.152;24.744;2022-07-06T13:09:54;99159.25;;;34.72;nan
8758;BME280;4415;42.152;24.744;2022-07-06T13:12:20;99155.97;;;34.52;nan
8758;BME280;4415;42.152;24.744;2022-07-06T13:14:46;99165.91;;;34.66;nan
8758;BME280;4415;42.152;24.744;2022-07-06T13:17:12;99163.34;;;34.90;nan
8758;BME280;4415;42.152;24.744;2022-07-06T13:19:37;99165.00;;;34.69;nan
8758;BME280;4415;42.152;24.744;2022-07-06T13:22:03;99157.09;;;34.24;nan
8758;BME280;4415;42.152;24.744;2022-07-06T13:24:29;99162.28;;;33.91;nan
8758;BME280;4415;42.152;24.744;2022-07-06T13:26:55;99151.84;;;33.92;nan
8758;BME280;4415;42.152;24.744;2022-07-06T13:29:21;99160.75;;;33.43;nan
8758;BME280;4415;42.152;24.744;2022-07-06T13:31:47;99158.16;;;33.49;nan
8758;BME280;4415;42.152;24.744;2022-07-06T13:34:12;99152.22;;;33.60;nan
8758;BME280;4415;42.152;24.744;2022-07-06T13:36:41;99159.00;;;33.24;nan
8758;BME280;4415;42.152;24.744;2022-07-06T13:39:07;99163.16;;;32.94;nan
8758;BME280;4415;42.152;24.744;2022-07-06T13:41:33;99150.06;;;33.04;nan
8758;BME280;4415;42.152;24.744;2022-07-06T13:43:59;99128.78;;;32.94;nan